Time;durP1;ratioP1;P1;durP2;ratioP2;P2;SDS_P1;SDS_P2;PMS_P1;PMS_P2;Temp;Humidity;BMP_temperature;BMP_pressure;BME280_temperature;BME280_humidity;BME280_pressure;Samples;Min_cycle;Max_cycle;Signal;HPM_P1;HPM_P2
2021/03/27 00:00:26;;;;;;;7.50;4.50;;;;;;;;;;5117247;28;20439;-52
2021/03/27 00:03:02;;;;;;;8.57;3.50;;;;;;;;;;5116727;28;20520;-55
2021/03/27 00:05:30;;;;;;;5.43;3.10;;;;;;;;;;5117369;28;20446;-58
2021/03/27 00:08:00;;;;;;;6.93;3.83;;;;;;;;;;5116529;28;20455;-50
2021/03/27 00:10:30;;;;;;;10.67;2.83;;;;;;;;;;5117186;28;20800;-57
2021/03/27 00:13:04;;;;;;;3.67;2.07;;;;;;;;;;5116715;28;20478;-53
2021/03/27 00:15:40;;;;;;;5.70;2.47;;;;;;;;;;5116752;28;20590;-53
2021/03/27 00:18:10;;;;;;;3.93;2.20;;;;;;;;;;5116401;28;20497;-57
2021/03/27 00:20:39;;;;;;;8.43;2.10;;;;;;;;;;5116852;28;20459;-61
2021/03/27 00:23:16;;;;;;;4.07;1.90;;;;;;;;;;5117044;28;20472;-53
2021/03/27 00:25:45;;;;;;;3.00;1.50;;;;;;;;;;5114931;28;20483;-54
2021/03/27 00:28:16;;;;;;;5.10;1.80;;;;;;;;;;5117446;28;20482;-60
2021/03/27 00:30:46;;;;;;;6.60;4.00;;;;;;;;;;5116751;28;20459;-56
2021/03/27 00:33:14;;;;;;;2.40;1.35;;;;;;;;;;5115986;28;20216;-54
2021/03/27 00:35:53;;;;;;;4.32;2.50;;;;;;;;;;5116100;28;20209;-56
2021/03/27 00:38:24;;;;;;;2.40;1.20;;;;;;;;;;5116090;28;20233;-60
2021/03/27 00:40:54;;;;;;;7.47;4.63;;;;;;;;;;5116697;28;20443;-52
2021/03/27 00:46:26;;;;;;;5.77;2.73;;;;;;;;;;5116540;28;20180;-57
2021/03/27 00:48:55;;;;;;;4.38;2.10;;;;;;;;;;5116026;28;20434;-61
2021/03/27 00:51:30;;;;;;;7.93;3.15;;;;;;;;;;5116039;28;20219;-56
2021/03/27 00:54:01;;;;;;;8.23;2.28;;;;;;;;;;5115833;28;20253;-57
2021/03/27 00:56:29;;;;;;;37.22;20.88;;;;;;;;;;5116755;28;20193;-53
2021/03/27 00:59:06;;;;;;;6.72;3.88;;;;;;;;;;5115787;28;20217;-58
2021/03/27 01:01:35;;;;;;;3.10;1.80;;;;;;;;;;5115257;28;20205;-57
2021/03/27 01:04:04;;;;;;;3.80;2.20;;;;;;;;;;5115218;28;20218;-55
2021/03/27 01:06:35;;;;;;;4.15;2.03;;;;;;;;;;5115953;28;20197;-55
2021/03/27 01:09:03;;;;;;;6.45;1.60;;;;;;;;;;5115238;28;20209;-54
2021/03/27 01:11:31;;;;;;;2.97;1.30;;;;;;;;;;5115614;28;20193;-57
2021/03/27 01:14:04;;;;;;;4.38;2.85;;;;;;;;;;5116396;28;20510;-53
2021/03/27 01:16:33;;;;;;;14.43;9.20;;;;;;;;;;5115429;28;20205;-59
2021/03/27 01:19:02;;;;;;;12.63;7.85;;;;;;;;;;5115525;28;20288;-51
2021/03/27 01:24:33;;;;;;;6.68;4.10;;;;;;;;;;5112742;28;20215;-59
2021/03/27 01:27:01;;;;;;;5.15;2.85;;;;;;;;;;5115339;28;20205;-54
2021/03/27 01:29:36;;;;;;;5.07;2.80;;;;;;;;;;5115624;28;20202;-55
2021/03/27 01:32:08;;;;;;;9.18;1.90;;;;;;;;;;5115961;28;20193;-54
2021/03/27 01:34:37;;;;;;;3.35;1.65;;;;;;;;;;5115026;28;20204;-62
2021/03/27 01:37:11;;;;;;;2.60;1.25;;;;;;;;;;5114604;28;20216;-52
2021/03/27 01:39:44;;;;;;;4.78;2.75;;;;;;;;;;5115125;28;20216;-50
2021/03/27 01:42:25;;;;;;;7.82;3.17;;;;;;;;;;5115371;28;20201;-53
2021/03/27 01:45:11;;;;;;;5.25;2.25;;;;;;;;;;5108687;28;20206;-54
2021/03/27 01:47:42;;;;;;;3.85;1.35;;;;;;;;;;5103310;28;20227;-53
2021/03/27 01:50:18;;;;;;;5.13;2.13;;;;;;;;;;5115786;28;20200;-53
2021/03/27 01:52:58;;;;;;;3.92;1.67;;;;;;;;;;5115473;28;20212;-60
2021/03/27 01:55:54;;;;;;;2.45;1.20;;;;;;;;;;5115583;28;20209;-57
2021/03/27 01:58:24;;;;;;;4.65;2.08;;;;;;;;;;5114030;28;20221;-52
2021/03/27 02:00:52;;;;;;;3.83;2.20;;;;;;;;;;5115207;28;20201;-54
2021/03/27 02:03:28;;;;;;;4.15;2.40;;;;;;;;;;5115587;28;20258;-57
2021/03/27 02:06:01;;;;;;;6.55;3.83;;;;;;;;;;5114821;28;20205;-57
2021/03/27 02:08:36;;;;;;;5.25;1.75;;;;;;;;;;5115466;28;20210;-53
2021/03/27 02:11:06;;;;;;;6.25;2.35;;;;;;;;;;5115510;28;20204;-55
2021/03/27 02:13:38;;;;;;;6.05;2.10;;;;;;;;;;5115142;28;20209;-57
2021/03/27 02:16:08;;;;;;;5.10;1.60;;;;;;;;;;5115484;28;20231;-47
2021/03/27 02:18:55;;;;;;;5.95;2.25;;;;;;;;;;5114862;28;20228;-51
2021/03/27 02:21:36;;;;;;;6.80;2.35;;;;;;;;;;5115853;28;20205;-58
2021/03/27 02:24:23;;;;;;;6.32;2.42;;;;;;;;;;5112542;28;20205;-53
2021/03/27 02:26:59;;;;;;;4.22;2.20;;;;;;;;;;5115002;28;20249;-56
2021/03/27 02:29:55;;;;;;;5.93;1.40;;;;;;;;;;5115270;28;20193;-52
2021/03/27 02:32:28;;;;;;;6.85;3.30;;;;;;;;;;5115052;28;20185;-57
2021/03/27 02:34:59;;;;;;;7.13;2.78;;;;;;;;;;5116229;28;20202;-51
2021/03/27 02:37:29;;;;;;;6.15;2.40;;;;;;;;;;5119400;28;20205;-60
2021/03/27 02:39:59;;;;;;;9.63;5.63;;;;;;;;;;5119175;28;20223;-53
2021/03/27 02:42:32;;;;;;;3.38;1.85;;;;;;;;;;5119308;28;20193;-52
2021/03/27 02:45:14;;;;;;;3.92;1.90;;;;;;;;;;5119308;28;20263;-58
2021/03/27 02:47:58;;;;;;;3.67;1.58;;;;;;;;;;5118463;28;20228;-52
2021/03/27 02:53:35;;;;;;;5.00;2.15;;;;;;;;;;5118697;28;20215;-52
2021/03/27 02:56:15;;;;;;;3.55;2.05;;;;;;;;;;5105289;28;20201;-56
2021/03/27 02:58:45;;;;;;;6.10;1.85;;;;;;;;;;5097614;28;20230;-55
2021/03/27 03:01:15;;;;;;;4.40;2.40;;;;;;;;;;5097855;28;20190;-52
2021/03/27 03:03:51;;;;;;;5.55;2.13;;;;;;;;;;5097870;28;20202;-53
2021/03/27 03:06:24;;;;;;;4.40;1.80;;;;;;;;;;5098106;28;20210;-56
2021/03/27 03:08:57;;;;;;;6.47;2.63;;;;;;;;;;5097481;28;20232;-55
2021/03/27 03:11:28;;;;;;;4.55;1.80;;;;;;;;;;5097780;28;20273;-50
2021/03/27 03:13:57;;;;;;;9.35;3.17;;;;;;;;;;5097419;28;20205;-53
2021/03/27 03:16:28;;;;;;;4.28;2.03;;;;;;;;;;5097821;28;20280;-55
2021/03/27 03:19:15;;;;;;;5.68;1.80;;;;;;;;;;5097845;28;20274;-49
2021/03/27 03:21:44;;;;;;;3.50;2.05;;;;;;;;;;5098101;28;20214;-52
2021/03/27 03:24:15;;;;;;;4.60;2.03;;;;;;;;;;5097587;28;20194;-54
2021/03/27 03:27:03;;;;;;;4.35;1.90;;;;;;;;;;5096864;28;20213;-50
2021/03/27 03:29:39;;;;;;;6.32;2.88;;;;;;;;;;5083117;28;20203;-53
2021/03/27 03:32:11;;;;;;;4.40;3.10;;;;;;;;;;5085825;28;20205;-59
2021/03/27 03:34:45;;;;;;;6.15;2.28;;;;;;;;;;5084496;28;20222;-52
2021/03/27 03:37:18;;;;;;;13.02;3.47;;;;;;;;;;5097578;28;20216;-56
2021/03/27 03:40:03;;;;;;;7.10;2.47;;;;;;;;;;5097447;28;20217;-53
2021/03/27 03:42:52;;;;;;;7.07;2.15;;;;;;;;;;5087477;28;20498;-61
2021/03/27 03:45:44;;;;;;;10.90;3.05;;;;;;;;;;5097515;28;20252;-57
2021/03/27 03:48:16;;;;;;;8.65;2.97;;;;;;;;;;5115604;28;20241;-54
2021/03/27 03:50:46;;;;;;;4.28;2.42;;;;;;;;;;5117850;28;20204;-61
2021/03/27 03:56:19;;;;;;;8.07;1.80;;;;;;;;;;5116760;28;20191;-59
2021/03/27 03:58:53;;;;;;;13.93;2.58;;;;;;;;;;5117438;28;20284;-60
2021/03/27 04:01:40;;;;;;;5.55;2.30;;;;;;;;;;5117072;28;20204;-56
2021/03/27 04:04:08;;;;;;;8.02;2.65;;;;;;;;;;5117252;28;20219;-51
2021/03/27 04:06:35;;;;;;;5.05;2.30;;;;;;;;;;5117170;28;20217;-52
2021/03/27 04:09:05;;;;;;;10.95;2.58;;;;;;;;;;5116526;28;20240;-57
2021/03/27 04:12:05;;;;;;;6.65;2.08;;;;;;;;;;5116946;28;20230;-53
2021/03/27 04:14:48;;;;;;;5.97;2.13;;;;;;;;;;5055146;28;20274;-57
2021/03/27 04:17:18;;;;;;;11.20;3.28;;;;;;;;;;5055010;28;20195;-54
2021/03/27 04:19:46;;;;;;;4.82;2.05;;;;;;;;;;5090639;28;20221;-54
2021/03/27 04:22:15;;;;;;;13.20;2.92;;;;;;;;;;5116482;28;20209;-56
2021/03/27 04:24:51;;;;;;;5.50;2.20;;;;;;;;;;5116327;28;20196;-56
2021/03/27 04:30:30;;;;;;;7.68;2.60;;;;;;;;;;5117454;28;20188;-59
2021/03/27 04:32:59;;;;;;;7.03;2.35;;;;;;;;;;5116256;28;20212;-53
2021/03/27 04:36:02;;;;;;;8.43;2.50;;;;;;;;;;5116725;28;20270;-55
2021/03/27 04:38:34;;;;;;;7.85;1.88;;;;;;;;;;5115929;28;20216;-58
2021/03/27 04:41:05;;;;;;;6.72;2.03;;;;;;;;;;5116150;28;20273;-57
2021/03/27 04:43:53;;;;;;;11.43;2.58;;;;;;;;;;5116137;28;20242;-55
2021/03/27 04:46:26;;;;;;;10.43;2.08;;;;;;;;;;5114250;28;20232;-58
2021/03/27 04:48:55;;;;;;;8.85;2.00;;;;;;;;;;5116112;28;20230;-55
2021/03/27 04:51:41;;;;;;;3.58;1.83;;;;;;;;;;5116072;28;20205;-53
2021/03/27 04:54:20;;;;;;;5.85;1.70;;;;;;;;;;5115843;28;20248;-54
2021/03/27 04:56:52;;;;;;;8.15;2.35;;;;;;;;;;5115865;28;20184;-55
2021/03/27 04:59:36;;;;;;;9.43;1.90;;;;;;;;;;5115224;28;20247;-58
2021/03/27 05:02:06;;;;;;;5.25;1.85;;;;;;;;;;5100856;28;20197;-60
2021/03/27 05:04:46;;;;;;;6.28;1.65;;;;;;;;;;5109822;28;20213;-52
2021/03/27 05:07:28;;;;;;;6.57;1.55;;;;;;;;;;5099051;28;20285;-57
2021/03/27 05:10:04;;;;;;;7.32;1.90;;;;;;;;;;5102149;28;20348;-56
2021/03/27 05:12:59;;;;;;;5.32;2.10;;;;;;;;;;5116539;28;20216;-56
2021/03/27 05:15:28;;;;;;;4.72;1.20;;;;;;;;;;5061458;28;20198;-52
2021/03/27 05:18:11;;;;;;;9.55;2.75;;;;;;;;;;5096495;28;20188;-54
2021/03/27 05:21:03;;;;;;;6.03;1.50;;;;;;;;;;5096219;28;20182;-60
2021/03/27 05:23:39;;;;;;;4.82;1.40;;;;;;;;;;5099417;28;20231;-56
2021/03/27 05:26:11;;;;;;;6.35;2.03;;;;;;;;;;5095678;28;20209;-52
2021/03/27 05:28:57;;;;;;;7.20;2.20;;;;;;;;;;5101717;28;20185;-57
2021/03/27 05:31:28;;;;;;;17.90;3.10;;;;;;;;;;5115734;28;20219;-58
2021/03/27 05:34:00;;;;;;;26.80;3.50;;;;;;;;;;5115575;28;20206;-53
2021/03/27 05:37:00;;;;;;;8.13;3.05;;;;;;;;;;5115966;28;20203;-52
2021/03/27 05:39:32;;;;;;;3.70;1.52;;;;;;;;;;5114319;28;20229;-52
2021/03/27 05:42:07;;;;;;;5.30;1.60;;;;;;;;;;5115453;28;20201;-55
2021/03/27 05:44:55;;;;;;;6.20;1.80;;;;;;;;;;5116244;28;20213;-60
2021/03/27 05:47:45;;;;;;;12.85;2.25;;;;;;;;;;5109199;28;20209;-60
2021/03/27 05:50:39;;;;;;;6.35;2.22;;;;;;;;;;5114999;28;20189;-53
2021/03/27 05:53:19;;;;;;;10.73;2.00;;;;;;;;;;5115828;28;20231;-59
2021/03/27 05:56:03;;;;;;;7.32;2.25;;;;;;;;;;5114643;28;20220;-56
2021/03/27 05:58:51;;;;;;;8.60;2.30;;;;;;;;;;5115265;28;20300;-54
2021/03/27 06:01:27;;;;;;;16.92;3.40;;;;;;;;;;5115288;28;20181;-53
2021/03/27 06:04:12;;;;;;;8.18;1.95;;;;;;;;;;5115788;28;20189;-52
2021/03/27 06:07:08;;;;;;;12.45;2.33;;;;;;;;;;5109012;28;20204;-58
2021/03/27 06:09:58;;;;;;;8.73;1.63;;;;;;;;;;5084941;28;20209;-55
2021/03/27 06:12:45;;;;;;;14.35;2.00;;;;;;;;;;5104921;28;20201;-49
2021/03/27 06:15:29;;;;;;;6.72;1.80;;;;;;;;;;5119686;28;20193;-54
2021/03/27 06:18:15;;;;;;;14.73;2.67;;;;;;;;;;5118820;28;20185;-53
2021/03/27 06:20:50;;;;;;;9.45;2.80;;;;;;;;;;5118876;28;20483;-58
2021/03/27 06:23:51;;;;;;;9.63;1.85;;;;;;;;;;5119455;28;20316;-52
2021/03/27 06:26:33;;;;;;;6.20;1.90;;;;;;;;;;5119250;28;20190;-52
2021/03/27 06:29:33;;;;;;;7.32;2.70;;;;;;;;;;5119341;28;20205;-53
2021/03/27 06:32:12;;;;;;;12.05;1.80;;;;;;;;;;5118777;28;20227;-56
2021/03/27 06:34:50;;;;;;;7.40;1.98;;;;;;;;;;5119298;28;20196;-50
2021/03/27 06:37:36;;;;;;;16.05;2.97;;;;;;;;;;5119524;28;20220;-56
2021/03/27 06:40:35;;;;;;;11.02;2.40;;;;;;;;;;5104929;28;20288;-55
2021/03/27 06:46:43;;;;;;;8.32;2.88;;;;;;;;;;5118487;28;20249;-46
2021/03/27 06:49:32;;;;;;;13.20;3.38;;;;;;;;;;5119429;28;20193;-54
2021/03/27 06:52:27;;;;;;;10.57;2.00;;;;;;;;;;5118948;28;20205;-55
2021/03/27 06:55:12;;;;;;;7.43;1.42;;;;;;;;;;5118601;28;20189;-53
2021/03/27 06:57:58;;;;;;;7.03;1.60;;;;;;;;;;5118054;28;20220;-57
2021/03/27 07:00:40;;;;;;;7.68;1.80;;;;;;;;;;5118100;28;20225;-49
2021/03/27 07:03:27;;;;;;;5.78;2.20;;;;;;;;;;5110431;28;20206;-53
2021/03/27 07:06:12;;;;;;;2.70;1.25;;;;;;;;;;5112593;28;20197;-52
2021/03/27 07:09:02;;;;;;;4.20;1.30;;;;;;;;;;5115324;28;20507;-56
2021/03/27 07:11:49;;;;;;;10.07;2.10;;;;;;;;;;5117706;28;20220;-55
2021/03/27 07:17:33;;;;;;;5.30;2.65;;;;;;;;;;5107200;28;20195;-57
2021/03/27 07:20:07;;;;;;;2.25;0.98;;;;;;;;;;5118188;28;20286;-51
2021/03/27 07:22:46;;;;;;;3.60;1.20;;;;;;;;;;5113199;28;20216;-58
2021/03/27 07:25:22;;;;;;;3.47;1.33;;;;;;;;;;5117792;28;20218;-52
2021/03/27 07:28:18;;;;;;;2.65;0.93;;;;;;;;;;5117665;28;20181;-57
2021/03/27 07:31:14;;;;;;;3.47;0.90;;;;;;;;;;5118488;28;20226;-51
2021/03/27 07:34:09;;;;;;;3.35;1.20;;;;;;;;;;5117443;28;20193;-53
2021/03/27 07:37:14;;;;;;;4.05;1.10;;;;;;;;;;5117407;28;20209;-57
2021/03/27 07:42:59;;;;;;;5.70;1.70;;;;;;;;;;5097029;28;20161;-55
2021/03/27 07:45:39;;;;;;;4.22;1.70;;;;;;;;;;5113195;28;20201;-49
2021/03/27 07:48:25;;;;;;;2.63;1.20;;;;;;;;;;5117040;28;20354;-58
2021/03/27 07:51:04;;;;;;;3.35;1.15;;;;;;;;;;5117727;28;20205;-53
2021/03/27 07:53:56;;;;;;;3.03;1.10;;;;;;;;;;5117250;28;20209;-54
2021/03/27 07:56:42;;;;;;;1.80;0.80;;;;;;;;;;5116489;28;20215;-56
2021/03/27 07:59:25;;;;;;;4.93;1.20;;;;;;;;;;5108504;28;20238;-55
2021/03/27 08:02:00;;;;;;;5.53;1.15;;;;;;;;;;5096998;28;20204;-54
2021/03/27 08:07:43;;;;;;;9.38;2.13;;;;;;;;;;5094334;28;20199;-53
2021/03/27 08:10:24;;;;;;;4.78;1.90;;;;;;;;;;5117189;28;20209;-58
2021/03/27 08:13:06;;;;;;;5.88;2.22;;;;;;;;;;5116631;28;20193;-58
2021/03/27 08:16:06;;;;;;;7.55;1.20;;;;;;;;;;5113319;28;20209;-52
2021/03/27 08:18:55;;;;;;;4.30;1.70;;;;;;;;;;5105047;28;20193;-55
2021/03/27 08:21:26;;;;;;;4.50;1.23;;;;;;;;;;5116117;28;20189;-55
2021/03/27 08:24:11;;;;;;;4.65;1.08;;;;;;;;;;5116282;28;20419;-55
2021/03/27 08:27:01;;;;;;;4.00;1.15;;;;;;;;;;5115507;28;20207;-55
2021/03/27 08:29:51;;;;;;;3.15;1.00;;;;;;;;;;5115729;28;20199;-47
2021/03/27 08:32:31;;;;;;;7.00;1.63;;;;;;;;;;5115832;28;20194;-57
2021/03/27 08:35:29;;;;;;;4.00;1.30;;;;;;;;;;5116159;28;20209;-60
2021/03/27 08:38:19;;;;;;;3.72;1.20;;;;;;;;;;5054319;28;20219;-59
2021/03/27 08:41:10;;;;;;;3.55;1.20;;;;;;;;;;5111204;28;20311;-56
2021/03/27 08:43:43;;;;;;;7.55;2.13;;;;;;;;;;5115079;28;20213;-52
2021/03/27 08:46:25;;;;;;;4.43;1.92;;;;;;;;;;5113149;28;20234;-58
2021/03/27 08:49:13;;;;;;;8.48;2.55;;;;;;;;;;5115628;28;20189;-60
2021/03/27 08:51:42;;;;;;;8.70;1.80;;;;;;;;;;5097413;28;20209;-53
2021/03/27 08:54:33;;;;;;;9.30;3.35;;;;;;;;;;5114855;28;20428;-58
2021/03/27 08:57:28;;;;;;;7.40;1.90;;;;;;;;;;5115728;28;20205;-56
2021/03/27 09:00:19;;;;;;;10.40;2.33;;;;;;;;;;5114381;28;20486;-48
2021/03/27 09:03:09;;;;;;;10.27;3.30;;;;;;;;;;5114511;28;20459;-57
2021/03/27 09:06:11;;;;;;;9.10;2.60;;;;;;;;;;5110451;28;20500;-52
2021/03/27 09:08:41;;;;;;;8.37;2.17;;;;;;;;;;5114470;28;20443;-49
2021/03/27 09:11:25;;;;;;;10.97;3.20;;;;;;;;;;5114779;28;20475;-56
2021/03/27 09:14:03;;;;;;;7.90;2.10;;;;;;;;;;5098621;28;20487;-58
2021/03/27 09:19:55;;;;;;;34.50;16.73;;;;;;;;;;5051610;28;20485;-53
2021/03/27 09:22:37;;;;;;;17.50;7.50;;;;;;;;;;5093817;28;20519;-54
2021/03/27 09:25:10;;;;;;;11.63;3.07;;;;;;;;;;5114500;28;20453;-53
2021/03/27 09:27:51;;;;;;;12.83;2.97;;;;;;;;;;5114472;28;20659;-60
2021/03/27 09:30:25;;;;;;;15.40;3.20;;;;;;;;;;5114585;28;20439;-58
2021/03/27 09:32:54;;;;;;;7.13;2.30;;;;;;;;;;5114649;28;20435;-54
2021/03/27 09:35:42;;;;;;;8.63;2.10;;;;;;;;;;5114126;28;20454;-54
2021/03/27 09:38:28;;;;;;;8.50;2.20;;;;;;;;;;5114230;28;20439;-54
2021/03/27 09:41:09;;;;;;;8.70;2.53;;;;;;;;;;5113999;28;20530;-55
2021/03/27 09:43:44;;;;;;;7.33;2.47;;;;;;;;;;5113352;28;20896;-59
2021/03/27 09:46:19;;;;;;;6.73;2.23;;;;;;;;;;5117861;28;20458;-50
2021/03/27 09:48:58;;;;;;;7.43;1.77;;;;;;;;;;5116739;28;20453;-54
2021/03/27 09:51:33;;;;;;;8.60;3.20;;;;;;;;;;5117678;28;20489;-60
2021/03/27 09:54:03;;;;;;;6.20;2.27;;;;;;;;;;5118761;28;20446;-54
2021/03/27 09:57:02;;;;;;;10.13;3.67;;;;;;;;;;5117690;28;20443;-58
2021/03/27 09:59:42;;;;;;;8.73;3.10;;;;;;;;;;5116780;28;20514;-53
2021/03/27 10:02:29;;;;;;;8.17;3.17;;;;;;;;;;5112682;28;20460;-57
2021/03/27 10:05:07;;;;;;;8.93;2.40;;;;;;;;;;5114975;28;20462;-60
2021/03/27 10:07:43;;;;;;;9.17;2.87;;;;;;;;;;5116646;28;20470;-60
2021/03/27 10:10:29;;;;;;;4.77;1.87;;;;;;;;;;5117494;28;20514;-58
2021/03/27 10:13:02;;;;;;;12.73;2.13;;;;;;;;;;5117184;28;20447;-62
2021/03/27 10:15:35;;;;;;;6.93;2.00;;;;;;;;;;5117512;28;20483;-52
2021/03/27 10:18:05;;;;;;;9.70;2.30;;;;;;;;;;5117197;28;20447;-56
2021/03/27 10:20:37;;;;;;;18.37;2.77;;;;;;;;;;5117535;28;20455;-51
2021/03/27 10:23:05;;;;;;;7.07;2.53;;;;;;;;;;5117410;28;20490;-59
2021/03/27 10:25:35;;;;;;;8.87;2.13;;;;;;;;;;5117315;28;20454;-56
2021/03/27 10:28:24;;;;;;;13.27;3.13;;;;;;;;;;5116741;28;20463;-57
2021/03/27 10:30:59;;;;;;;5.80;1.80;;;;;;;;;;5109627;28;20475;-53
2021/03/27 10:33:47;;;;;;;12.90;2.47;;;;;;;;;;5117669;28;20492;-60
2021/03/27 10:36:30;;;;;;;5.73;1.80;;;;;;;;;;5117075;28;20455;-55
2021/03/27 10:39:22;;;;;;;7.40;2.70;;;;;;;;;;5116641;28;20486;-57
2021/03/27 10:41:57;;;;;;;9.93;2.27;;;;;;;;;;5116730;28;20487;-57
2021/03/27 10:44:29;;;;;;;7.57;2.43;;;;;;;;;;5124128;28;20521;-55
2021/03/27 10:47:01;;;;;;;7.20;1.77;;;;;;;;;;5137690;28;20441;-57
2021/03/27 10:49:33;;;;;;;10.67;2.80;;;;;;;;;;5137122;28;20442;-56
2021/03/27 10:52:19;;;;;;;7.50;2.50;;;;;;;;;;5122586;28;20462;-55
2021/03/27 10:55:11;;;;;;;10.80;2.47;;;;;;;;;;5116613;28;20455;-47
2021/03/27 10:57:49;;;;;;;8.77;2.53;;;;;;;;;;5115420;28;20455;-57
2021/03/27 11:00:25;;;;;;;8.83;3.03;;;;;;;;;;5115701;28;20490;-55
2021/03/27 11:03:15;;;;;;;6.33;2.17;;;;;;;;;;5116275;28;20487;-57
2021/03/27 11:05:58;;;;;;;8.03;1.70;;;;;;;;;;5116277;28;20455;-59
2021/03/27 11:11:50;;;;;;;19.00;3.07;;;;;;;;;;5055841;28;20536;-49
2021/03/27 11:14:31;;;;;;;7.50;1.23;;;;;;;;;;5094462;28;20483;-49
2021/03/27 11:17:18;;;;;;;7.77;1.67;;;;;;;;;;5113944;28;20455;-59
2021/03/27 11:19:55;;;;;;;4.60;1.90;;;;;;;;;;5116342;28;20583;-55
2021/03/27 11:22:51;;;;;;;8.30;2.37;;;;;;;;;;5115541;28;20477;-53
2021/03/27 11:25:29;;;;;;;5.30;1.90;;;;;;;;;;5116777;28;20542;-61
2021/03/27 11:28:02;;;;;;;4.00;1.80;;;;;;;;;;5115935;28;20415;-63
2021/03/27 11:31:07;;;;;;;9.00;2.73;;;;;;;;;;5115267;28;20419;-57
2021/03/27 11:33:35;;;;;;;10.47;4.80;;;;;;;;;;5116171;28;20451;-53
2021/03/27 11:36:26;;;;;;;7.03;2.40;;;;;;;;;;5115614;28;20439;-57
2021/03/27 11:38:58;;;;;;;4.60;2.00;;;;;;;;;;5115431;28;20431;-60
2021/03/27 11:41:28;;;;;;;5.40;2.07;;;;;;;;;;5114438;28;20478;-57
2021/03/27 11:44:11;;;;;;;12.03;2.60;;;;;;;;;;5115384;28;20455;-59
2021/03/27 11:46:40;;;;;;;6.53;2.27;;;;;;;;;;5115703;28;20529;-58
2021/03/27 11:49:27;;;;;;;8.03;1.87;;;;;;;;;;5115267;28;20431;-57
2021/03/27 11:51:57;;;;;;;4.30;2.33;;;;;;;;;;5114262;28;20477;-58
2021/03/27 11:54:32;;;;;;;10.03;1.90;;;;;;;;;;5114689;28;20516;-56
2021/03/27 12:03:31;;;;;;;6.00;1.90;;;;;;;;;;5099877;28;20419;-59
2021/03/27 12:06:05;;;;;;;8.87;2.50;;;;;;;;;;5114714;28;20443;-55
2021/03/27 12:08:36;;;;;;;11.97;3.40;;;;;;;;;;5114347;28;20450;-56
2021/03/27 12:11:38;;;;;;;15.20;3.17;;;;;;;;;;5116034;28;20481;-58
2021/03/27 12:14:11;;;;;;;11.80;2.20;;;;;;;;;;5095208;28;20471;-56
2021/03/27 12:16:40;;;;;;;8.10;2.30;;;;;;;;;;5105075;28;20482;-62
2021/03/27 12:19:32;;;;;;;8.37;2.57;;;;;;;;;;5111595;28;20521;-52
2021/03/27 12:22:02;;;;;;;13.20;2.63;;;;;;;;;;5112675;28;20526;-51
2021/03/27 12:24:38;;;;;;;5.70;2.80;;;;;;;;;;5115437;28;20478;-57
2021/03/27 12:27:08;;;;;;;4.67;1.80;;;;;;;;;;5114650;28;20511;-54
2021/03/27 12:29:42;;;;;;;6.93;2.77;;;;;;;;;;5113011;28;20520;-55
2021/03/27 12:32:28;;;;;;;8.70;2.00;;;;;;;;;;5115280;28;20450;-53
2021/03/27 12:35:01;;;;;;;8.43;3.27;;;;;;;;;;5106947;28;20451;-56
2021/03/27 12:37:53;;;;;;;9.63;2.77;;;;;;;;;;5113324;28;20455;-56
2021/03/27 12:40:24;;;;;;;8.27;2.50;;;;;;;;;;5110451;28;20513;-58
2021/03/27 12:43:00;;;;;;;7.40;2.30;;;;;;;;;;5117122;28;20466;-54
2021/03/27 12:45:34;;;;;;;8.50;1.90;;;;;;;;;;5103671;28;20486;-58
2021/03/27 12:48:27;;;;;;;10.30;1.80;;;;;;;;;;5124687;28;20498;-62
2021/03/27 12:51:25;;;;;;;7.20;1.43;;;;;;;;;;5112510;28;20914;-58
2021/03/27 12:54:13;;;;;;;7.13;2.13;;;;;;;;;;5109694;28;20431;-57
2021/03/27 12:56:59;;;;;;;10.97;2.13;;;;;;;;;;5098691;28;20450;-51
2021/03/27 12:59:40;;;;;;;7.10;2.30;;;;;;;;;;5114056;28;20503;-56
2021/03/27 13:02:39;;;;;;;9.83;2.70;;;;;;;;;;5114061;28;20454;-57
2021/03/27 13:05:25;;;;;;;6.73;2.93;;;;;;;;;;5114283;28;20469;-52
2021/03/27 13:08:01;;;;;;;5.17;2.20;;;;;;;;;;5114582;28;20568;-56
2021/03/27 13:10:52;;;;;;;7.10;2.27;;;;;;;;;;5101966;28;20501;-53
2021/03/27 13:13:51;;;;;;;6.63;3.03;;;;;;;;;;5106053;28;20681;-51
2021/03/27 13:16:22;;;;;;;7.30;2.53;;;;;;;;;;5069158;28;20459;-59
2021/03/27 13:18:57;;;;;;;4.40;1.83;;;;;;;;;;5113805;28;20469;-52
2021/03/27 13:21:36;;;;;;;9.90;2.40;;;;;;;;;;5107574;28;20788;-56
2021/03/27 13:24:12;;;;;;;8.13;2.20;;;;;;;;;;5107718;28;20591;-57
2021/03/27 13:27:05;;;;;;;7.03;3.00;;;;;;;;;;5113135;28;20468;-60
2021/03/27 13:29:35;;;;;;;5.03;1.90;;;;;;;;;;5112713;28;20492;-57
2021/03/27 13:32:09;;;;;;;21.23;6.70;;;;;;;;;;5113313;28;20478;-56
2021/03/27 13:34:44;;;;;;;7.10;2.90;;;;;;;;;;5113637;28;20470;-54
2021/03/27 13:37:33;;;;;;;7.30;2.90;;;;;;;;;;5114129;28;20445;-60
2021/03/27 13:40:03;;;;;;;7.37;1.93;;;;;;;;;;5099602;28;20494;-56
2021/03/27 13:42:35;;;;;;;7.63;3.20;;;;;;;;;;5112549;28;20642;-57
2021/03/27 13:45:26;;;;;;;9.50;2.40;;;;;;;;;;5113030;28;20751;-56
2021/03/27 13:48:04;;;;;;;7.00;2.20;;;;;;;;;;5110074;28;20458;-55
2021/03/27 13:51:05;;;;;;;4.60;1.10;;;;;;;;;;5113632;28;20539;-55
2021/03/27 13:53:57;;;;;;;5.57;2.10;;;;;;;;;;5111691;28;20509;-55
2021/03/27 13:56:42;;;;;;;4.87;2.10;;;;;;;;;;5113951;28;20486;-55
2021/03/27 13:59:40;;;;;;;6.30;3.20;;;;;;;;;;5113198;28;20451;-53
2021/03/27 14:02:19;;;;;;;5.93;2.63;;;;;;;;;;5101947;28;20455;-60
2021/03/27 14:07:53;;;;;;;7.00;2.03;;;;;;;;;;5107773;28;20442;-55
2021/03/27 14:10:25;;;;;;;6.20;1.90;;;;;;;;;;5114336;28;20436;-51
2021/03/27 14:12:57;;;;;;;5.47;1.80;;;;;;;;;;5104432;28;20451;-56
2021/03/27 14:15:31;;;;;;;7.03;2.07;;;;;;;;;;5104429;28;20467;-56
2021/03/27 14:18:07;;;;;;;7.27;2.50;;;;;;;;;;5114521;28;20435;-57
2021/03/27 14:20:43;;;;;;;4.93;2.10;;;;;;;;;;5101230;28;20515;-54
2021/03/27 14:23:22;;;;;;;4.50;2.20;;;;;;;;;;5111300;28;20474;-53
2021/03/27 14:26:20;;;;;;;9.47;2.30;;;;;;;;;;5115047;28;20450;-53
2021/03/27 14:28:51;;;;;;;9.00;1.67;;;;;;;;;;5095930;28;20448;-52
2021/03/27 14:31:50;;;;;;;6.97;2.27;;;;;;;;;;5108077;28;20431;-55
2021/03/27 14:34:24;;;;;;;3.80;2.00;;;;;;;;;;5112504;28;20427;-54
2021/03/27 14:37:12;;;;;;;5.83;2.40;;;;;;;;;;5113107;28;20458;-49
2021/03/27 14:39:54;;;;;;;5.67;2.30;;;;;;;;;;5117298;28;20470;-55
2021/03/27 14:42:42;;;;;;;4.43;1.40;;;;;;;;;;5118059;28;20494;-58
2021/03/27 14:45:25;;;;;;;5.07;1.77;;;;;;;;;;5112303;28;20465;-56
2021/03/27 14:47:58;;;;;;;6.93;2.97;;;;;;;;;;5117110;28;20455;-58
2021/03/27 14:50:30;;;;;;;3.93;1.33;;;;;;;;;;5121203;28;20457;-56
2021/03/27 14:53:14;;;;;;;7.57;1.97;;;;;;;;;;5121295;28;20463;-56
2021/03/27 14:55:55;;;;;;;7.43;1.63;;;;;;;;;;5116651;28;20428;-53
2021/03/27 14:58:29;;;;;;;9.50;2.10;;;;;;;;;;5117121;28;20455;-59
2021/03/27 15:01:10;;;;;;;7.60;1.50;;;;;;;;;;5116185;28;20479;-57
2021/03/27 15:03:43;;;;;;;8.60;1.77;;;;;;;;;;5115803;28;20450;-53
2021/03/27 15:09:44;;;;;;;4.43;1.30;;;;;;;;;;5114604;28;20459;-58
2021/03/27 15:12:42;;;;;;;4.40;1.80;;;;;;;;;;5116153;28;20460;-59
2021/03/27 15:15:13;;;;;;;6.83;2.27;;;;;;;;;;5101328;28;20475;-59
2021/03/27 15:17:47;;;;;;;21.00;12.70;;;;;;;;;;5121012;28;20462;-56
2021/03/27 15:20:27;;;;;;;7.40;2.23;;;;;;;;;;5112981;28;20482;-59
2021/03/27 15:23:12;;;;;;;4.50;1.47;;;;;;;;;;5114804;28;20482;-58
2021/03/27 15:28:57;;;;;;;4.47;1.70;;;;;;;;;;5116622;28;20419;-58
2021/03/27 15:31:27;;;;;;;4.20;1.67;;;;;;;;;;5115540;28;20462;-54
2021/03/27 15:33:59;;;;;;;5.00;1.77;;;;;;;;;;5115497;28;20455;-56
2021/03/27 15:36:51;;;;;;;5.50;2.53;;;;;;;;;;5117638;28;20435;-57
2021/03/27 15:39:31;;;;;;;4.63;1.50;;;;;;;;;;5136849;28;20446;-57
2021/03/27 15:42:04;;;;;;;16.93;1.90;;;;;;;;;;5114109;28;20486;-57
2021/03/27 15:44:38;;;;;;;7.73;1.83;;;;;;;;;;5115599;28;20455;-58
2021/03/27 15:47:10;;;;;;;7.30;1.70;;;;;;;;;;5097059;28;20459;-51
2021/03/27 15:49:47;;;;;;;3.70;1.67;;;;;;;;;;5103726;28;20439;-55
2021/03/27 15:52:27;;;;;;;3.80;1.73;;;;;;;;;;5107991;28;20451;-60
2021/03/27 15:54:56;;;;;;;5.37;1.77;;;;;;;;;;5103387;28;20466;-59
2021/03/27 15:57:54;;;;;;;5.50;1.90;;;;;;;;;;5116875;28;20538;-57
2021/03/27 16:00:39;;;;;;;6.67;1.83;;;;;;;;;;5101310;28;20463;-58
2021/03/27 16:03:21;;;;;;;5.23;2.00;;;;;;;;;;5115810;28;20467;-60
2021/03/27 16:05:55;;;;;;;5.83;1.77;;;;;;;;;;5067171;28;20465;-53
2021/03/27 16:08:28;;;;;;;7.33;1.67;;;;;;;;;;5115637;28;20444;-59
2021/03/27 16:11:18;;;;;;;5.10;1.67;;;;;;;;;;5113759;28;20546;-53
2021/03/27 16:13:58;;;;;;;3.90;1.43;;;;;;;;;;5110877;28;20460;-58
2021/03/27 16:16:40;;;;;;;8.50;1.80;;;;;;;;;;5095124;28;20487;-59
2021/03/27 16:19:26;;;;;;;8.33;2.03;;;;;;;;;;5061352;28;20577;-60
2021/03/27 16:22:08;;;;;;;13.17;2.03;;;;;;;;;;5097405;28;20511;-58
2021/03/27 16:24:50;;;;;;;7.73;2.10;;;;;;;;;;5114609;28;20434;-55
2021/03/27 16:27:42;;;;;;;9.23;1.50;;;;;;;;;;5114189;28;20447;-58
2021/03/27 16:30:15;;;;;;;3.70;1.70;;;;;;;;;;5115440;28;20464;-62
2021/03/27 16:33:10;;;;;;;9.23;2.60;;;;;;;;;;5104416;28;20543;-57
2021/03/27 16:35:51;;;;;;;5.27;1.87;;;;;;;;;;5115034;28;20455;-61
2021/03/27 16:38:45;;;;;;;3.13;1.43;;;;;;;;;;5112738;28;20496;-56
2021/03/27 16:41:15;;;;;;;5.83;1.47;;;;;;;;;;5113892;28;20538;-59
2021/03/27 16:43:46;;;;;;;5.87;2.20;;;;;;;;;;5114369;28;20551;-59